createdAt,value
2019-01-27T00:00:03.180Z,88
2019-01-27T00:01:03.799Z,88
2019-01-27T00:02:03.430Z,88
2019-01-27T00:03:03.201Z,88
2019-01-27T00:04:03.020Z,88
2019-01-27T00:05:03.363Z,88
2019-01-27T00:06:02.879Z,88
2019-01-27T00:07:02.805Z,88
2019-01-27T00:08:02.938Z,88
2019-01-27T00:09:03.602Z,88
2019-01-27T00:10:03.283Z,88
2019-01-27T00:11:03.109Z,89
2019-01-27T00:12:03.027Z,89
2019-01-27T00:13:03.289Z,89
2019-01-27T00:14:03.053Z,89
2019-01-27T00:15:03.527Z,89
2019-01-27T00:16:03.310Z,89
2019-01-27T00:17:03.079Z,89
2019-01-27T00:18:03.007Z,89
2019-01-27T00:19:03.374Z,89
2019-01-27T00:20:01.995Z,89
2019-01-27T00:21:03.256Z,89
2019-01-27T00:22:02.931Z,89
2019-01-27T00:23:03.207Z,89
2019-01-27T00:24:02.915Z,89
2019-01-27T00:25:03.586Z,89
2019-01-27T00:26:03.318Z,89
2019-01-27T00:27:03.202Z,89
2019-01-27T00:28:03.679Z,89
2019-01-27T00:29:03.368Z,89
2019-01-27T00:30:03.443Z,89
2019-01-27T00:31:03.044Z,89
2019-01-27T00:32:02.887Z,89
2019-01-27T00:33:03.636Z,89
2019-01-27T00:34:03.030Z,89
2019-01-27T00:35:03.017Z,89
2019-01-27T00:36:02.753Z,89
2019-01-27T00:37:02.814Z,89
2019-01-27T00:38:03.106Z,89
2019-01-27T00:39:02.914Z,89
2019-01-27T00:40:03.696Z,89
2019-01-27T00:41:03.249Z,89
2019-01-27T00:42:03.207Z,89
2019-01-27T00:43:01.933Z,89
2019-01-27T00:44:03.226Z,89
2019-01-27T00:45:03.865Z,89
2019-01-27T00:46:03.711Z,89
2019-01-27T00:47:03.218Z,89
2019-01-27T00:48:03.518Z,89
2019-01-27T00:49:02.318Z,89
2019-01-27T00:50:03.135Z,89
2019-01-27T00:51:02.906Z,89
2019-01-27T00:52:03.731Z,89
2019-01-27T00:53:03.725Z,89
2019-01-27T00:54:03.454Z,89
2019-01-27T00:55:03.757Z,89
2019-01-27T00:56:03.574Z,89
2019-01-27T00:57:03.493Z,89
2019-01-27T00:58:03.007Z,89
2019-01-27T00:59:03.085Z,89
2019-01-27T01:00:03.069Z,89
2019-01-27T01:01:02.993Z,89
2019-01-27T01:02:02.796Z,89
2019-01-27T01:03:02.869Z,89
2019-01-27T01:04:02.683Z,89
2019-01-27T01:05:03.131Z,89
2019-01-27T01:06:03.134Z,89
2019-01-27T01:07:03.054Z,89
2019-01-27T01:08:02.036Z,89
2019-01-27T01:09:03.863Z,89
2019-01-27T01:10:03.729Z,89
2019-01-27T01:11:03.569Z,89
2019-01-27T01:12:03.273Z,89
2019-01-27T01:13:02.825Z,89
2019-01-27T01:14:02.984Z,89
2019-01-27T01:15:03.739Z,89
2019-01-27T01:16:03.482Z,89
2019-01-27T01:17:03.270Z,89
2019-01-27T01:18:02.852Z,89
2019-01-27T01:19:02.891Z,89
2019-01-27T01:20:03.900Z,89
2019-01-27T01:21:02.996Z,89
2019-01-27T01:22:02.846Z,89
2019-01-27T01:23:03.261Z,89
2019-01-27T01:24:03.385Z,89
2019-01-27T01:25:03.043Z,89
2019-01-27T01:26:02.964Z,89
2019-01-27T01:27:02.916Z,89
2019-01-27T01:28:03.749Z,89
2019-01-27T01:29:03.692Z,89
2019-01-27T01:30:03.460Z,89
2019-01-27T01:31:02.285Z,89
2019-01-27T01:32:03.408Z,89
2019-01-27T01:33:03.763Z,88
2019-01-27T01:34:03.809Z,88
2019-01-27T01:35:03.438Z,88
2019-01-27T01:36:02.991Z,88
2019-01-27T01:37:03.378Z,88
2019-01-27T01:38:03.057Z,88
2019-01-27T01:39:03.809Z,88
2019-01-27T01:40:03.814Z,88
2019-01-27T01:41:03.475Z,88
2019-01-27T01:42:03.295Z,88
2019-01-27T01:43:02.940Z,88
2019-01-27T01:44:02.880Z,88
2019-01-27T01:45:03.456Z,88
2019-01-27T01:46:03.073Z,88
2019-01-27T01:47:03.550Z,88
2019-01-27T01:48:03.353Z,88
2019-01-27T01:49:03.420Z,88
2019-01-27T01:50:03.262Z,88
2019-01-27T01:51:03.356Z,88
2019-01-27T01:52:03.076Z,88
2019-01-27T01:53:02.738Z,88
2019-01-27T01:54:03.422Z,88
2019-01-27T01:55:02.998Z,88
2019-01-27T01:56:02.161Z,88
2019-01-27T01:57:03.903Z,88
2019-01-27T01:58:02.129Z,89
2019-01-27T01:59:03.154Z,89
2019-01-27T02:00:03.229Z,89
2019-01-27T02:01:02.816Z,89
2019-01-27T02:02:03.411Z,89
2019-01-27T02:03:03.350Z,89
2019-01-27T02:04:03.857Z,89
2019-01-27T02:05:03.226Z,89
2019-01-27T02:06:03.528Z,89
2019-01-27T02:07:02.994Z,89
2019-01-27T02:08:02.867Z,89
2019-01-27T02:09:02.695Z,89
2019-01-27T02:10:02.979Z,89
2019-01-27T02:11:02.879Z,89
2019-01-27T02:12:03.553Z,89
2019-01-27T02:13:03.724Z,89
2019-01-27T02:14:02.859Z,89
2019-01-27T02:15:03.808Z,89
2019-01-27T02:16:03.597Z,89
2019-01-27T02:17:03.536Z,89
2019-01-27T02:18:02.392Z,89
2019-01-27T02:19:02.405Z,89
2019-01-27T02:20:03.286Z,89
2019-01-27T02:21:03.418Z,89
2019-01-27T02:22:03.464Z,89
2019-01-27T02:23:03.677Z,89
2019-01-27T02:24:03.338Z,89
2019-01-27T02:25:02.879Z,89
2019-01-27T02:26:02.884Z,89
2019-01-27T02:27:03.347Z,89
2019-01-27T02:28:03.411Z,89
2019-01-27T02:29:03.787Z,89
2019-01-27T02:30:03.376Z,89
2019-01-27T02:31:03.079Z,89
2019-01-27T02:32:03.022Z,89
2019-01-27T02:33:03.788Z,89
2019-01-27T02:34:03.421Z,89
2019-01-27T02:35:03.430Z,89
2019-01-27T02:36:02.879Z,89
2019-01-27T02:37:02.980Z,89
2019-01-27T02:38:03.436Z,89
2019-01-27T02:39:03.137Z,89
2019-01-27T02:40:02.607Z,89
2019-01-27T02:41:03.706Z,89
2019-01-27T02:42:03.663Z,89
2019-01-27T02:43:01.941Z,89
2019-01-27T02:44:03.778Z,89
2019-01-27T02:45:03.517Z,89
2019-01-27T02:46:03.284Z,89
2019-01-27T02:47:02.935Z,89
2019-01-27T02:48:03.151Z,89
2019-01-27T02:49:02.977Z,89
2019-01-27T02:50:03.185Z,89
2019-01-27T02:51:03.212Z,89
2019-01-27T02:52:03.304Z,89
2019-01-27T02:53:02.806Z,89
2019-01-27T02:54:03.779Z,89
2019-01-27T02:55:03.702Z,89
2019-01-27T02:56:03.426Z,89
2019-01-27T02:57:03.101Z,89
2019-01-27T02:58:03.745Z,89
2019-01-27T02:59:03.636Z,90
2019-01-27T03:00:03.683Z,90
2019-01-27T03:01:03.401Z,90
2019-01-27T03:02:03.568Z,90
2019-01-27T03:03:03.539Z,90
2019-01-27T03:04:02.983Z,90
2019-01-27T03:05:03.219Z,90
2019-01-27T03:06:02.941Z,90
2019-01-27T03:07:03.701Z,90
2019-01-27T03:08:02.016Z,90
2019-01-27T03:09:03.390Z,90
2019-01-27T03:10:03.087Z,90
2019-01-27T03:11:04.012Z,90
2019-01-27T03:12:03.049Z,90
2019-01-27T03:13:03.143Z,90
2019-01-27T03:14:03.539Z,90
2019-01-27T03:15:02.956Z,90
2019-01-27T03:16:03.196Z,90
2019-01-27T03:17:03.547Z,90
2019-01-27T03:18:03.218Z,90
2019-01-27T03:19:03.181Z,90
2019-01-27T03:20:03.843Z,90
2019-01-27T03:21:03.607Z,90
2019-01-27T03:22:03.434Z,90
2019-01-27T03:23:03.667Z,90
2019-01-27T03:24:03.323Z,90
2019-01-27T03:25:03.567Z,90
2019-01-27T03:26:03.190Z,90
2019-01-27T03:27:03.491Z,90
2019-01-27T03:28:03.355Z,90
2019-01-27T03:29:03.435Z,90
2019-01-27T03:30:02.739Z,90
2019-01-27T03:31:03.589Z,90
2019-01-27T03:32:03.066Z,91
2019-01-27T03:33:03.000Z,91
2019-01-27T03:34:03.696Z,91
2019-01-27T03:35:02.705Z,91
2019-01-27T03:36:02.527Z,91
2019-01-27T03:37:01.803Z,91
2019-01-27T03:38:02.985Z,91
2019-01-27T03:39:02.053Z,91
2019-01-27T03:40:03.500Z,91
2019-01-27T03:41:02.977Z,91
2019-01-27T03:42:03.322Z,91
2019-01-27T03:43:03.087Z,91
2019-01-27T03:44:03.506Z,91
2019-01-27T03:45:02.969Z,91
2019-01-27T03:46:03.497Z,91
2019-01-27T03:47:03.462Z,91
2019-01-27T03:48:03.235Z,91
2019-01-27T03:49:03.831Z,91
2019-01-27T03:50:03.498Z,91
2019-01-27T03:51:03.768Z,91
2019-01-27T03:52:03.240Z,91
2019-01-27T03:53:03.074Z,91
2019-01-27T03:54:02.925Z,91
2019-01-27T03:55:03.435Z,91
2019-01-27T03:56:03.335Z,91
2019-01-27T03:57:03.055Z,91
2019-01-27T03:58:03.284Z,91
2019-01-27T03:59:02.050Z,91
2019-01-27T04:00:03.094Z,91
2019-01-27T04:01:02.785Z,91
2019-01-27T04:02:03.702Z,91
2019-01-27T04:03:03.639Z,91
2019-01-27T04:04:02.709Z,91
2019-01-27T04:05:03.023Z,91
2019-01-27T04:06:03.067Z,91
2019-01-27T04:07:03.561Z,91
2019-01-27T04:08:03.062Z,91
2019-01-27T04:09:03.002Z,91
2019-01-27T04:10:02.869Z,91
2019-01-27T04:11:03.096Z,91
2019-01-27T04:12:03.906Z,91
2019-01-27T04:13:03.554Z,91
2019-01-27T04:14:03.243Z,91
2019-01-27T04:15:03.646Z,91
2019-01-27T04:16:03.253Z,91
2019-01-27T04:17:03.203Z,91
2019-01-27T04:18:03.618Z,91
2019-01-27T04:19:03.601Z,91
2019-01-27T04:20:03.699Z,91
2019-01-27T04:21:01.836Z,91
2019-01-27T04:22:01.740Z,91
2019-01-27T04:23:03.103Z,91
2019-01-27T04:24:03.170Z,91
2019-01-27T04:25:02.944Z,91
2019-01-27T04:26:03.489Z,91
2019-01-27T04:27:03.343Z,91
2019-01-27T04:28:03.700Z,91
2019-01-27T04:29:03.202Z,91
2019-01-27T04:30:03.560Z,91
2019-01-27T04:31:03.327Z,91
2019-01-27T04:32:03.184Z,91
2019-01-27T04:33:03.699Z,91
2019-01-27T04:34:03.448Z,91
2019-01-27T04:35:03.229Z,91
2019-01-27T04:36:03.133Z,91
2019-01-27T04:37:03.015Z,91
2019-01-27T04:38:03.603Z,91
2019-01-27T04:39:03.362Z,91
2019-01-27T04:40:03.420Z,91
2019-01-27T04:41:02.874Z,91
2019-01-27T04:42:03.389Z,91
2019-01-27T04:43:03.036Z,91
2019-01-27T04:44:02.269Z,91
2019-01-27T04:45:03.551Z,91
2019-01-27T04:46:01.840Z,91
2019-01-27T04:47:03.108Z,91
2019-01-27T04:48:02.871Z,91
2019-01-27T04:49:03.507Z,91
2019-01-27T04:50:03.237Z,91
2019-01-27T04:51:03.012Z,91
2019-01-27T04:52:03.473Z,91
2019-01-27T04:53:03.645Z,91
2019-01-27T04:54:02.973Z,91
2019-01-27T04:55:03.288Z,91
2019-01-27T04:56:03.240Z,91
2019-01-27T04:57:03.462Z,91
2019-01-27T04:58:03.500Z,91
2019-01-27T04:59:03.616Z,91
2019-01-27T05:00:03.469Z,91
2019-01-27T05:01:03.334Z,91
2019-01-27T05:02:03.283Z,91
2019-01-27T05:03:03.298Z,90
2019-01-27T05:04:03.197Z,90
2019-01-27T05:05:03.694Z,91
2019-01-27T05:06:03.337Z,91
2019-01-27T05:07:03.479Z,90
2019-01-27T05:08:03.041Z,90
2019-01-27T05:09:03.142Z,90
2019-01-27T05:10:02.846Z,90
2019-01-27T05:11:03.470Z,90
2019-01-27T05:12:03.683Z,90
2019-01-27T05:13:02.955Z,90
2019-01-27T05:14:03.325Z,90
2019-01-27T05:15:03.600Z,90
2019-01-27T05:16:03.228Z,90
2019-01-27T05:17:03.424Z,90
2019-01-27T05:18:02.991Z,90
2019-01-27T05:19:03.564Z,90
2019-01-27T05:20:03.907Z,90
2019-01-27T05:21:03.512Z,90
2019-01-27T05:22:03.404Z,90
2019-01-27T05:23:03.137Z,90
2019-01-27T05:24:02.803Z,90
2019-01-27T05:25:03.102Z,90
2019-01-27T05:26:03.906Z,90
2019-01-27T05:27:02.858Z,90
2019-01-27T05:28:03.807Z,90
2019-01-27T05:29:03.647Z,90
2019-01-27T05:30:03.293Z,91
2019-01-27T05:31:02.932Z,91
2019-01-27T05:32:02.796Z,90
2019-01-27T05:33:03.390Z,90
2019-01-27T05:34:03.592Z,90
2019-01-27T05:35:03.133Z,90
2019-01-27T05:36:03.723Z,90
2019-01-27T05:37:03.635Z,90
2019-01-27T05:38:02.986Z,90
2019-01-27T05:39:03.165Z,90
2019-01-27T05:40:02.606Z,90
2019-01-27T05:41:03.628Z,90
2019-01-27T05:42:03.342Z,90
2019-01-27T05:43:03.545Z,90
2019-01-27T05:44:03.394Z,90
2019-01-27T05:45:03.276Z,90
2019-01-27T05:46:03.137Z,90
2019-01-27T05:47:03.667Z,90
2019-01-27T05:48:02.741Z,90
2019-01-27T05:49:03.537Z,90
2019-01-27T05:50:03.223Z,90
2019-01-27T05:51:03.545Z,90
2019-01-27T05:52:03.395Z,90
2019-01-27T05:53:03.278Z,90
2019-01-27T05:54:02.602Z,90
2019-01-27T05:55:03.099Z,90
2019-01-27T05:56:03.325Z,90
2019-01-27T05:57:03.176Z,90
2019-01-27T05:58:02.901Z,90
2019-01-27T05:59:03.686Z,90
2019-01-27T06:00:03.078Z,90
2019-01-27T06:01:03.329Z,90
2019-01-27T06:02:02.694Z,90
2019-01-27T06:03:03.517Z,90
2019-01-27T06:04:02.928Z,90
2019-01-27T06:05:02.929Z,90
2019-01-27T06:06:03.519Z,90
2019-01-27T06:07:03.376Z,90
2019-01-27T06:08:02.697Z,90
2019-01-27T06:09:03.711Z,90
2019-01-27T06:10:03.380Z,90
2019-01-27T06:11:02.850Z,90
2019-01-27T06:12:03.101Z,90
2019-01-27T06:13:03.418Z,90
2019-01-27T06:14:02.272Z,90
2019-01-27T06:15:03.045Z,90
2019-01-27T06:16:02.174Z,90
2019-01-27T06:17:03.367Z,90
2019-01-27T06:18:03.356Z,90
2019-01-27T06:19:03.356Z,90
2019-01-27T06:20:03.288Z,90
2019-01-27T06:21:03.576Z,90
2019-01-27T06:22:03.048Z,90
2019-01-27T06:23:03.495Z,90
2019-01-27T06:24:03.105Z,90
2019-01-27T06:25:03.726Z,90
2019-01-27T06:26:03.337Z,90
2019-01-27T06:27:03.130Z,90
2019-01-27T06:28:03.815Z,90
2019-01-27T06:29:02.690Z,90
2019-01-27T06:30:04.027Z,90
2019-01-27T06:31:03.664Z,90
2019-01-27T06:32:03.465Z,90
2019-01-27T06:33:03.420Z,90
2019-01-27T06:34:03.207Z,89
2019-01-27T06:35:03.027Z,89
2019-01-27T06:36:02.976Z,89
2019-01-27T06:37:03.195Z,89
2019-01-27T06:38:02.120Z,89
2019-01-27T06:39:03.014Z,89
2019-01-27T06:40:03.696Z,89
2019-01-27T06:41:03.199Z,89
2019-01-27T06:42:03.039Z,89
2019-01-27T06:43:02.793Z,89
2019-01-27T06:44:02.901Z,89
2019-01-27T06:45:02.957Z,89
2019-01-27T06:46:03.146Z,89
2019-01-27T06:47:03.568Z,89
2019-01-27T06:48:03.389Z,89
2019-01-27T06:49:03.444Z,89
2019-01-27T06:50:03.394Z,89
2019-01-27T06:51:02.912Z,89
2019-01-27T06:52:03.570Z,89
2019-01-27T06:53:03.517Z,89
2019-01-27T06:54:03.235Z,89
2019-01-27T06:55:03.690Z,89
2019-01-27T06:56:03.660Z,89
2019-01-27T06:57:02.862Z,89
2019-01-27T06:58:03.064Z,89
2019-01-27T06:59:02.429Z,89
2019-01-27T07:00:02.917Z,89
2019-01-27T07:01:03.826Z,89
2019-01-27T07:02:03.235Z,89
2019-01-27T07:03:03.311Z,89
2019-01-27T07:04:03.661Z,89
2019-01-27T07:05:03.006Z,89
2019-01-27T07:06:03.403Z,89
2019-01-27T07:07:03.016Z,89
2019-01-27T07:08:02.861Z,89
2019-01-27T07:09:03.408Z,89
2019-01-27T07:10:02.746Z,89
2019-01-27T07:11:03.950Z,89
2019-01-27T07:12:03.372Z,89
2019-01-27T07:13:03.096Z,89
2019-01-27T07:14:03.061Z,89
2019-01-27T07:15:03.127Z,89
2019-01-27T07:16:02.995Z,89
2019-01-27T07:17:04.043Z,89
2019-01-27T07:18:03.414Z,89
2019-01-27T07:19:03.194Z,89
2019-01-27T07:20:03.302Z,89
2019-01-27T07:21:03.135Z,89
2019-01-27T07:22:03.663Z,89
2019-01-27T07:23:03.081Z,89
2019-01-27T07:24:02.468Z,89
2019-01-27T07:25:03.800Z,89
2019-01-27T07:26:03.483Z,89
2019-01-27T07:27:03.346Z,89
2019-01-27T07:28:03.400Z,89
2019-01-27T07:29:03.510Z,89
2019-01-27T07:30:03.498Z,89
2019-01-27T07:31:03.177Z,89
2019-01-27T07:32:03.966Z,89
2019-01-27T07:33:02.896Z,89
2019-01-27T07:34:03.577Z,89
2019-01-27T07:35:03.513Z,89
2019-01-27T07:36:03.184Z,89
2019-01-27T07:37:02.785Z,89
2019-01-27T07:38:03.818Z,89
2019-01-27T07:39:03.317Z,90
2019-01-27T07:40:03.502Z,90
2019-01-27T07:41:02.789Z,90
2019-01-27T07:42:03.515Z,90
2019-01-27T07:43:03.314Z,90
2019-01-27T07:44:03.054Z,90
2019-01-27T07:45:03.820Z,89
2019-01-27T07:46:02.125Z,89
2019-01-27T07:47:02.114Z,89
2019-01-27T07:48:03.807Z,89
2019-01-27T07:49:03.639Z,89
2019-01-27T07:50:03.791Z,89
2019-01-27T07:51:02.695Z,89
2019-01-27T07:52:02.865Z,89
2019-01-27T07:53:03.277Z,89
2019-01-27T07:54:02.961Z,89
2019-01-27T07:55:03.687Z,89
2019-01-27T07:56:03.198Z,89
2019-01-27T07:57:03.303Z,89
2019-01-27T07:58:02.957Z,89
2019-01-27T07:59:02.925Z,89
2019-01-27T08:00:03.588Z,89
2019-01-27T08:01:03.396Z,89
2019-01-27T08:02:03.117Z,89
2019-01-27T08:03:03.655Z,89
2019-01-27T08:04:02.626Z,89
2019-01-27T08:05:02.945Z,89
2019-01-27T08:06:02.881Z,89
2019-01-27T08:07:03.257Z,89
2019-01-27T08:08:03.074Z,89
2019-01-27T08:09:03.391Z,89
2019-01-27T08:10:02.335Z,89
2019-01-27T08:11:01.829Z,89
2019-01-27T08:12:02.607Z,89
2019-01-27T08:13:02.973Z,89
2019-01-27T08:14:03.032Z,89
2019-01-27T08:15:02.902Z,89
2019-01-27T08:16:03.582Z,89
2019-01-27T08:17:03.833Z,89
2019-01-27T08:18:03.586Z,89
2019-01-27T08:19:03.782Z,89
2019-01-27T08:20:03.456Z,89
2019-01-27T08:21:02.939Z,89
2019-01-27T08:22:03.466Z,89
2019-01-27T08:23:03.777Z,88
2019-01-27T08:24:03.473Z,88
2019-01-27T08:25:03.140Z,88
2019-01-27T08:26:03.685Z,88
2019-01-27T08:27:03.524Z,88
2019-01-27T08:28:02.905Z,88
2019-01-27T08:29:02.866Z,88
2019-01-27T08:30:03.463Z,88
2019-01-27T08:31:02.835Z,88
2019-01-27T08:32:03.623Z,88
2019-01-27T08:33:03.375Z,89
2019-01-27T08:34:02.953Z,89
2019-01-27T08:35:02.586Z,88
2019-01-27T08:36:02.303Z,88
2019-01-27T08:37:02.832Z,88
2019-01-27T08:38:03.343Z,88
2019-01-27T08:39:02.946Z,88
2019-01-27T08:40:03.681Z,88
2019-01-27T08:41:03.142Z,88
2019-01-27T08:42:02.741Z,88
2019-01-27T08:43:03.496Z,88
2019-01-27T08:44:03.544Z,88
2019-01-27T08:45:03.628Z,88
2019-01-27T08:46:03.608Z,88
2019-01-27T08:47:03.208Z,88
2019-01-27T08:48:03.267Z,88
2019-01-27T08:49:03.809Z,88
2019-01-27T08:50:03.782Z,87
2019-01-27T08:51:03.613Z,87
2019-01-27T08:52:03.348Z,87
2019-01-27T08:53:03.013Z,87
2019-01-27T08:54:02.766Z,87
2019-01-27T08:55:03.820Z,87
2019-01-27T08:56:02.757Z,87
2019-01-27T08:57:03.298Z,87
2019-01-27T08:58:03.395Z,87
2019-01-27T08:59:03.138Z,87
2019-01-27T09:00:03.615Z,87
2019-01-27T09:01:02.490Z,86
2019-01-27T09:02:03.498Z,86
2019-01-27T09:03:03.637Z,86
2019-01-27T09:04:02.904Z,86
2019-01-27T09:05:03.283Z,86
2019-01-27T09:06:03.575Z,87
2019-01-27T09:07:03.324Z,87
2019-01-27T09:08:02.818Z,86
2019-01-27T09:09:03.591Z,86
2019-01-27T09:10:03.109Z,86
2019-01-27T09:11:03.140Z,86
2019-01-27T09:12:03.088Z,86
2019-01-27T09:13:02.754Z,86
2019-01-27T09:14:03.515Z,86
2019-01-27T09:15:03.246Z,86
2019-01-27T09:16:03.407Z,86
2019-01-27T09:17:03.638Z,86
2019-01-27T09:18:03.653Z,85
2019-01-27T09:19:03.361Z,85
2019-01-27T09:20:03.221Z,85
2019-01-27T09:21:02.268Z,85
2019-01-27T09:22:02.985Z,85
2019-01-27T09:23:03.810Z,85
2019-01-27T09:24:03.465Z,85
2019-01-27T09:25:03.566Z,85
2019-01-27T09:26:03.091Z,85
2019-01-27T09:27:02.961Z,85
2019-01-27T09:28:03.519Z,85
2019-01-27T09:29:03.768Z,85
2019-01-27T09:30:03.370Z,85
2019-01-27T09:31:02.735Z,85
2019-01-27T09:32:03.472Z,85
2019-01-27T09:33:02.880Z,85
2019-01-27T09:34:03.827Z,85
2019-01-27T09:35:03.125Z,85
2019-01-27T09:36:03.306Z,85
2019-01-27T09:37:02.959Z,85
2019-01-27T09:38:03.294Z,85
2019-01-27T09:39:03.133Z,85
2019-01-27T09:40:03.011Z,84
2019-01-27T09:41:03.668Z,84
2019-01-27T09:42:03.620Z,84
2019-01-27T09:43:03.296Z,84
2019-01-27T09:44:03.087Z,84
2019-01-27T09:45:02.997Z,84
2019-01-27T09:46:11.803Z,84
2019-01-27T09:47:03.275Z,84
2019-01-27T09:48:02.018Z,84
2019-01-27T09:49:03.331Z,84
2019-01-27T09:50:03.093Z,84
2019-01-27T09:51:03.668Z,84
2019-01-27T09:52:03.134Z,84
2019-01-27T09:53:03.539Z,84
2019-01-27T09:54:03.124Z,84
2019-01-27T09:55:03.587Z,84
2019-01-27T09:56:02.981Z,84
2019-01-27T09:57:03.637Z,84
2019-01-27T09:58:03.295Z,84
2019-01-27T09:59:03.400Z,84
2019-01-27T10:00:03.571Z,84
2019-01-27T10:01:02.891Z,84
2019-01-27T10:02:03.792Z,84
2019-01-27T10:03:03.822Z,84
2019-01-27T10:04:03.755Z,84
2019-01-27T10:05:03.505Z,84
2019-01-27T10:06:02.918Z,84
2019-01-27T10:07:03.234Z,84
2019-01-27T10:08:03.274Z,84
2019-01-27T10:09:02.475Z,84
2019-01-27T10:10:01.981Z,84
2019-01-27T10:11:03.522Z,84
2019-01-27T10:12:03.298Z,84
2019-01-27T10:13:03.105Z,84
2019-01-27T10:14:03.634Z,84
2019-01-27T10:15:03.071Z,84
2019-01-27T10:16:03.714Z,84
2019-01-27T10:17:03.235Z,83
2019-01-27T10:18:03.086Z,83
2019-01-27T10:19:03.001Z,83
2019-01-27T10:20:03.538Z,83
2019-01-27T10:21:03.082Z,84
2019-01-27T10:22:03.612Z,83
2019-01-27T10:23:03.464Z,83
2019-01-27T10:24:02.729Z,84
2019-01-27T10:25:03.192Z,84
2019-01-27T10:26:02.912Z,84
2019-01-27T10:27:02.978Z,84
2019-01-27T10:28:03.680Z,84
2019-01-27T10:29:03.650Z,84
2019-01-27T10:30:03.068Z,84
2019-01-27T10:31:03.271Z,84
2019-01-27T10:32:02.732Z,84
2019-01-27T10:33:01.790Z,84
2019-01-27T10:34:03.445Z,84
2019-01-27T10:35:03.653Z,84
2019-01-27T10:36:03.365Z,84
2019-01-27T10:37:03.285Z,84
2019-01-27T10:38:03.644Z,84
2019-01-27T10:39:03.543Z,84
2019-01-27T10:40:10.952Z,84
2019-01-27T10:41:03.355Z,84
2019-01-27T10:42:03.475Z,84
2019-01-27T10:43:03.279Z,84
2019-01-27T10:44:03.065Z,84
2019-01-27T10:45:03.274Z,84
2019-01-27T10:46:03.544Z,84
2019-01-27T10:47:03.418Z,84
2019-01-27T10:48:03.019Z,84
2019-01-27T10:49:03.378Z,84
2019-01-27T10:50:03.460Z,84
2019-01-27T10:51:03.372Z,84
2019-01-27T10:52:03.121Z,84
2019-01-27T10:53:03.106Z,84
2019-01-27T10:54:03.528Z,84
2019-01-27T10:55:03.474Z,84
2019-01-27T10:56:02.685Z,84
2019-01-27T10:57:02.852Z,84
2019-01-27T10:58:03.166Z,84
2019-01-27T10:59:03.844Z,84
2019-01-27T11:00:03.605Z,84
2019-01-27T11:01:02.705Z,84
2019-01-27T11:02:03.371Z,84
2019-01-27T11:03:03.088Z,84
2019-01-27T11:04:03.585Z,84
2019-01-27T11:05:03.524Z,84
2019-01-27T11:06:03.184Z,84
2019-01-27T11:07:03.570Z,84
2019-01-27T11:08:03.614Z,84
2019-01-27T11:09:03.871Z,84
2019-01-27T11:10:03.637Z,84
2019-01-27T11:11:03.506Z,84
2019-01-27T11:12:03.016Z,84
2019-01-27T11:13:03.689Z,85
2019-01-27T11:14:03.450Z,85
2019-01-27T11:15:03.232Z,84
2019-01-27T11:16:03.479Z,84
2019-01-27T11:17:03.477Z,84
2019-01-27T11:18:02.802Z,84
2019-01-27T11:19:03.394Z,84
2019-01-27T11:20:03.753Z,84
2019-01-27T11:21:03.163Z,84
2019-01-27T11:22:03.618Z,84
2019-01-27T11:23:03.316Z,84
2019-01-27T11:24:03.742Z,84
2019-01-27T11:25:03.090Z,84
2019-01-27T11:26:03.422Z,84
2019-01-27T11:27:03.440Z,84
2019-01-27T11:28:03.048Z,84
2019-01-27T11:29:03.630Z,84
2019-01-27T11:30:03.429Z,84
2019-01-27T11:31:02.937Z,84
2019-01-27T11:32:03.917Z,84
2019-01-27T11:33:02.830Z,84
2019-01-27T11:34:03.662Z,84
2019-01-27T11:35:03.497Z,84
2019-01-27T11:36:03.484Z,84
2019-01-27T11:37:03.683Z,84
2019-01-27T11:38:03.213Z,84
2019-01-27T11:39:03.289Z,83
2019-01-27T11:40:03.413Z,83
2019-01-27T11:41:02.910Z,83
2019-01-27T11:42:03.489Z,83
2019-01-27T11:43:03.584Z,83
2019-01-27T11:44:03.097Z,83
2019-01-27T11:45:03.584Z,83
2019-01-27T11:46:03.472Z,83
2019-01-27T11:47:03.703Z,83
2019-01-27T11:48:03.172Z,83
2019-01-27T11:49:03.735Z,83
2019-01-27T11:50:03.582Z,83
2019-01-27T11:51:03.099Z,83
2019-01-27T11:52:03.818Z,83
2019-01-27T11:53:03.600Z,83
2019-01-27T11:54:03.479Z,83
2019-01-27T11:55:03.462Z,82
2019-01-27T11:56:03.772Z,82
2019-01-27T11:57:03.141Z,82
2019-01-27T11:58:02.979Z,82
2019-01-27T11:59:03.537Z,82
2019-01-27T12:00:03.178Z,82
2019-01-27T12:01:02.973Z,82
2019-01-27T12:02:03.299Z,82
2019-01-27T12:03:03.194Z,82
2019-01-27T12:04:03.331Z,82
2019-01-27T12:05:06.337Z,82
2019-01-27T12:06:04.632Z,82
2019-01-27T12:07:07.589Z,82
2019-01-27T12:08:08.946Z,82
2019-01-27T12:09:07.635Z,81
2019-01-27T12:10:03.326Z,81
2019-01-27T12:11:03.117Z,81
2019-01-27T12:12:02.948Z,81
2019-01-27T12:13:02.868Z,81
2019-01-27T12:14:03.417Z,81
2019-01-27T12:15:03.094Z,81
2019-01-27T12:16:03.481Z,81
2019-01-27T12:17:03.192Z,81
2019-01-27T12:18:03.745Z,81
2019-01-27T12:19:03.060Z,81
2019-01-27T12:20:03.696Z,81
2019-01-27T12:21:03.131Z,81
2019-01-27T12:22:03.044Z,81
2019-01-27T12:23:03.401Z,81
2019-01-27T12:24:03.188Z,81
2019-01-27T12:25:02.856Z,81
2019-01-27T12:26:03.292Z,81
2019-01-27T12:27:02.794Z,81
2019-01-27T12:28:03.423Z,81
2019-01-27T12:29:03.862Z,81
2019-01-27T12:30:03.406Z,81
2019-01-27T12:31:03.727Z,80
2019-01-27T12:32:03.145Z,80
2019-01-27T12:33:03.218Z,80
2019-01-27T12:34:03.101Z,80
2019-01-27T12:35:03.515Z,80
2019-01-27T12:36:03.200Z,80
2019-01-27T12:37:02.951Z,80
2019-01-27T12:38:03.618Z,80
2019-01-27T12:39:03.046Z,80
2019-01-27T12:40:03.426Z,80
2019-01-27T12:41:03.293Z,80
2019-01-27T12:42:03.314Z,80
2019-01-27T12:43:02.834Z,80
2019-01-27T12:44:03.601Z,80
2019-01-27T12:45:03.706Z,80
2019-01-27T12:46:02.914Z,80
2019-01-27T12:47:03.620Z,80
2019-01-27T12:48:03.075Z,80
2019-01-27T12:49:02.868Z,80
2019-01-27T12:50:03.257Z,80
2019-01-27T12:51:02.854Z,80
2019-01-27T12:52:03.139Z,80
2019-01-27T12:53:03.045Z,80
2019-01-27T12:54:02.769Z,80
2019-01-27T12:55:03.352Z,80
2019-01-27T12:56:01.920Z,80
2019-01-27T12:57:03.620Z,80
2019-01-27T12:58:03.251Z,80
2019-01-27T12:59:02.822Z,80
2019-01-27T13:00:03.317Z,80
2019-01-27T13:01:03.715Z,80
2019-01-27T13:02:03.550Z,80
2019-01-27T13:03:02.915Z,80
2019-01-27T13:04:03.230Z,80
2019-01-27T13:05:02.960Z,80
2019-01-27T13:06:03.351Z,80
2019-01-27T13:07:02.906Z,80
2019-01-27T13:08:03.106Z,80
2019-01-27T13:09:03.867Z,80
2019-01-27T13:10:03.840Z,80
2019-01-27T13:11:06.109Z,80
2019-01-27T13:12:03.158Z,80
2019-01-27T13:13:03.690Z,80
2019-01-27T13:14:03.659Z,80
2019-01-27T13:15:03.395Z,80
2019-01-27T13:16:02.989Z,80
2019-01-27T13:17:02.272Z,80
2019-01-27T13:18:01.951Z,80
2019-01-27T13:19:03.597Z,80
2019-01-27T13:20:02.237Z,80
2019-01-27T13:21:03.421Z,80
2019-01-27T13:22:03.236Z,80
2019-01-27T13:23:03.444Z,80
2019-01-27T13:24:03.817Z,80
2019-01-27T13:25:03.594Z,80
2019-01-27T13:26:04.106Z,80
2019-01-27T13:27:03.804Z,80
2019-01-27T13:28:03.530Z,80
2019-01-27T13:29:02.851Z,80
2019-01-27T13:30:03.294Z,80
2019-01-27T13:31:03.032Z,80
2019-01-27T13:32:03.593Z,80
2019-01-27T13:33:03.574Z,80
2019-01-27T13:34:03.542Z,80
2019-01-27T13:35:03.346Z,80
2019-01-27T13:36:03.773Z,80
2019-01-27T13:37:03.699Z,80
2019-01-27T13:38:03.487Z,80
2019-01-27T13:39:03.113Z,80
2019-01-27T13:40:03.058Z,80
2019-01-27T13:41:03.010Z,80
2019-01-27T13:42:02.103Z,80
2019-01-27T13:43:02.950Z,80
2019-01-27T13:44:03.126Z,80
2019-01-27T13:45:02.879Z,80
2019-01-27T13:46:03.222Z,80
2019-01-27T13:47:02.786Z,80
2019-01-27T13:48:02.847Z,80
2019-01-27T13:49:03.515Z,80
2019-01-27T13:50:02.977Z,80
2019-01-27T13:51:03.518Z,80
2019-01-27T13:52:02.937Z,80
2019-01-27T13:53:03.418Z,80
2019-01-27T13:54:03.012Z,80
2019-01-27T13:55:03.741Z,80
2019-01-27T13:56:03.545Z,80
2019-01-27T13:57:03.216Z,80
2019-01-27T13:58:02.846Z,80
2019-01-27T13:59:03.269Z,80
2019-01-27T14:00:03.301Z,80
2019-01-27T14:01:03.212Z,80
2019-01-27T14:02:02.925Z,80
2019-01-27T14:03:21.631Z,80
2019-01-27T14:04:02.786Z,80
2019-01-27T14:05:02.956Z,80
2019-01-27T14:06:02.921Z,80
2019-01-27T14:07:06.962Z,80
2019-01-27T14:08:03.049Z,80
2019-01-27T14:09:03.712Z,80
2019-01-27T14:10:03.104Z,80
2019-01-27T14:11:03.573Z,80
2019-01-27T14:12:03.064Z,80
2019-01-27T14:13:03.652Z,80
2019-01-27T14:14:03.052Z,80
2019-01-27T14:15:03.840Z,80